This is the latest recevied weather packets stored in our database for station/object DK4DAX-2. If no packets are shown the sender has not sent any weather packets the latest 10 day(s).
| Time | Temp. | Humidity | Pressure | Rain* | Wind** | Luminosity | Snow |
|---|---|---|---|---|---|---|---|
| 1788041703 | 20° C | 73% | 1007.1 hPa | 0 mm | - | - | - |
| 1788040804 | 20° C | 73% | 1006.9 hPa | 0 mm | - | - | - |
| 1788039904 | 20.56° C | 73% | 1007.2 hPa | 0 mm | - | - | - |
| 1788039004 | 20.56° C | 73% | 1006.9 hPa | 0 mm | - | - | - |
| 1788038103 | 20.56° C | 72% | 1007 hPa | 0 mm | - | - | - |
| 1788037204 | 20.56° C | 72% | 1007.1 hPa | 0 mm | - | - | - |
| 1788036304 | 20.56° C | 71% | 1007.2 hPa | 0 mm | - | - | - |
| 1788035403 | 20.56° C | 71% | 1007.1 hPa | 0 mm | - | - | - |
| 1788034503 | 21.11° C | 71% | 1007.3 hPa | 0 mm | - | - | - |
| 1788033604 | 21.11° C | 71% | 1007.4 hPa | 0 mm | - | - | - |
| 1788032703 | 20.56° C | 73% | 1007.3 hPa | 0 mm | - | - | - |
| 1788031803 | 20.56° C | 79% | 1007.2 hPa | 0 mm | - | - | - |
| 1788030904 | 19.44° C | 83% | 1007.2 hPa | 0 mm | - | - | - |
| 1788030003 | 19.44° C | 83% | 1007.3 hPa | 0 mm | - | - | - |
| 1788029103 | 19.44° C | 81% | 1007.4 hPa | 0 mm | - | - | - |
| 1788028203 | 20° C | 78% | 1007.6 hPa | 0 mm | - | - | - |
| 1788027304 | 20° C | 75% | 1007.6 hPa | 0 mm | - | - | - |
| 1788025503 | 20.56° C | 68% | 1007.8 hPa | 0 mm | - | - | - |
| 1788024604 | 21.11° C | 62% | 1007.9 hPa | 0 mm | - | - | - |
| 1788023703 | 22.78° C | 56% | 1008.4 hPa | 0 mm | - | - | - |
| 1788022803 | 22.78° C | 55% | 1007.7 hPa | 0 mm | - | - | - |
| 1788021904 | 22.22° C | 57% | 1008 hPa | 0 mm | - | - | - |
| 1788021003 | 22.22° C | 58% | 1008 hPa | 0 mm | - | - | - |
| 1788020103 | 22.22° C | 58% | 1008.2 hPa | 0 mm | - | - | - |
| 1788019204 | 22.22° C | 57% | 1008.4 hPa | 0 mm | - | - | - |
* Rain latest hour (hover to see other rain measurements)
** Current wind speed in m/s (hover to see current wind gust speed)